createdAt,value
2019-02-20T00:01:55.968Z,6.20
2019-02-20T00:04:26.481Z,6.33
2019-02-20T00:06:55.438Z,5.10
2019-02-20T00:09:25.237Z,5.70
2019-02-20T00:11:54.238Z,5.97
2019-02-20T00:14:23.462Z,5.67
2019-02-20T00:16:53.048Z,5.57
2019-02-20T00:19:22.768Z,5.80
2019-02-20T00:21:51.772Z,6.40
2019-02-20T00:24:21.876Z,5.03
2019-02-20T00:26:50.723Z,6.00
2019-02-20T00:29:19.707Z,5.17
2019-02-20T00:31:48.800Z,5.10
2019-02-20T00:34:17.911Z,5.70
2019-02-20T00:36:46.857Z,5.60
2019-02-20T00:39:16.284Z,6.20
2019-02-20T00:41:45.276Z,4.67
2019-02-20T00:44:32.587Z,3.93
2019-02-20T00:47:23.625Z,4.53
2019-02-20T00:49:52.708Z,4.30
2019-02-20T00:52:31.002Z,3.77
2019-02-20T00:55:00.004Z,4.10
2019-02-20T00:57:28.930Z,3.90
2019-02-20T00:59:57.968Z,4.13
2019-02-20T01:02:27.067Z,4.50
2019-02-20T01:04:55.964Z,4.63
2019-02-20T01:07:32.085Z,4.27
2019-02-20T01:10:00.991Z,3.80
2019-02-20T01:12:30.080Z,3.90
2019-02-20T01:14:58.946Z,4.23
2019-02-20T01:17:28.265Z,4.90
2019-02-20T01:19:57.172Z,4.67
2019-02-20T01:22:26.175Z,3.80
2019-02-20T01:24:55.007Z,4.20
2019-02-20T01:27:23.900Z,4.10
2019-02-20T01:33:21.819Z,4.57
2019-02-20T01:35:50.747Z,4.60
2019-02-20T01:38:19.663Z,4.27
2019-02-20T01:40:51.822Z,4.47
2019-02-20T01:43:20.827Z,4.30
2019-02-20T01:45:49.687Z,4.80
2019-02-20T01:48:20.407Z,4.40
2019-02-20T01:50:57.378Z,4.27
2019-02-20T01:53:26.496Z,4.80
2019-02-20T01:55:56.248Z,4.93
2019-02-20T01:58:25.090Z,4.77
2019-02-20T02:00:54.305Z,4.40
2019-02-20T02:03:23.378Z,4.07
2019-02-20T02:05:52.355Z,4.23
2019-02-20T02:08:21.567Z,4.83
2019-02-20T02:10:50.422Z,4.90
2019-02-20T02:13:19.507Z,4.37
2019-02-20T02:15:48.429Z,4.17
2019-02-20T02:18:17.623Z,4.57
2019-02-20T02:20:47.499Z,4.00
2019-02-20T02:23:19.831Z,4.17
2019-02-20T02:25:54.515Z,5.37
2019-02-20T02:28:23.501Z,4.33
2019-02-20T02:30:53.672Z,5.03
2019-02-20T02:33:23.228Z,4.80
2019-02-20T02:35:54.772Z,5.20
2019-02-20T02:38:23.681Z,4.30
2019-02-20T02:40:52.504Z,5.33
2019-02-20T02:43:24.999Z,4.87
2019-02-20T02:45:54.608Z,3.80
2019-02-20T02:48:26.821Z,4.30
2019-02-20T02:50:56.249Z,4.13
2019-02-20T02:53:30.694Z,3.50
2019-02-20T02:55:56.749Z,3.97
2019-02-20T02:58:25.771Z,3.53
2019-02-20T03:01:01.562Z,3.40
2019-02-20T03:03:31.030Z,4.00
2019-02-20T03:06:02.165Z,3.60
2019-02-20T03:08:31.862Z,4.03
2019-02-20T03:11:06.731Z,3.23
2019-02-20T03:13:35.892Z,3.97
2019-02-20T03:16:04.806Z,3.33
2019-02-20T03:18:33.603Z,3.77
2019-02-20T03:21:02.475Z,4.03
2019-02-20T03:23:39.980Z,4.20
2019-02-20T03:26:02.068Z,4.20
2019-02-20T03:28:32.134Z,3.97
2019-02-20T03:31:01.259Z,4.33
2019-02-20T03:33:30.551Z,4.53
2019-02-20T03:35:59.373Z,3.93
2019-02-20T03:38:31.416Z,3.37
2019-02-20T03:41:00.578Z,4.60
2019-02-20T03:43:29.503Z,3.60
2019-02-20T03:45:58.716Z,3.40
2019-02-20T03:48:27.803Z,4.20
2019-02-20T03:50:57.846Z,4.10
2019-02-20T03:53:26.999Z,4.43
2019-02-20T03:55:56.648Z,5.50
2019-02-20T03:58:27.049Z,5.80
2019-02-20T04:00:57.046Z,6.33
2019-02-20T04:03:27.017Z,6.43
2019-02-20T04:05:55.892Z,7.07
2019-02-20T04:08:25.638Z,8.53
2019-02-20T04:10:56.657Z,7.73
2019-02-20T04:13:25.470Z,8.70
2019-02-20T04:15:55.836Z,8.97
2019-02-20T04:18:45.872Z,9.50
2019-02-20T04:21:14.747Z,9.73
2019-02-20T04:23:43.753Z,10.20
2019-02-20T04:26:12.585Z,10.40
2019-02-20T04:28:41.527Z,10.07
2019-02-20T04:31:13.671Z,11.20
2019-02-20T04:33:42.941Z,10.60
2019-02-20T04:36:11.815Z,11.17
2019-02-20T04:38:40.649Z,11.00
2019-02-20T04:41:15.470Z,11.33
2019-02-20T04:43:47.887Z,12.07
2019-02-20T04:46:16.809Z,10.63
2019-02-20T04:48:46.074Z,11.13
2019-02-20T04:51:17.550Z,11.40
2019-02-20T04:53:47.505Z,11.20
2019-02-20T04:56:17.473Z,11.27
2019-02-20T04:58:48.075Z,10.77
2019-02-20T05:01:17.671Z,11.63
2019-02-20T05:03:47.061Z,11.07
2019-02-20T05:06:16.078Z,10.93
2019-02-20T05:08:44.977Z,11.63
2019-02-20T05:11:16.703Z,11.60
2019-02-20T05:13:45.635Z,11.10
2019-02-20T05:16:17.740Z,10.43
2019-02-20T05:18:46.716Z,11.27
2019-02-20T05:21:15.660Z,11.53
2019-02-20T05:23:44.745Z,11.60
2019-02-20T05:26:14.130Z,11.03
2019-02-20T05:28:44.760Z,10.93
2019-02-20T05:31:13.699Z,10.93
2019-02-20T05:33:43.466Z,10.30
2019-02-20T05:36:13.045Z,9.97
2019-02-20T05:38:42.018Z,9.60
2019-02-20T05:41:12.711Z,10.90
2019-02-20T05:43:45.016Z,10.03
2019-02-20T05:46:14.548Z,10.53
2019-02-20T05:48:43.498Z,10.80
2019-02-20T05:51:13.712Z,10.90
2019-02-20T05:53:48.977Z,11.30
2019-02-20T05:56:17.825Z,10.23
2019-02-20T05:58:48.544Z,10.40
2019-02-20T06:01:17.520Z,11.40
2019-02-20T06:03:46.570Z,10.43
2019-02-20T06:06:15.654Z,9.97
2019-02-20T06:08:44.588Z,10.80
2019-02-20T06:11:15.299Z,10.20
2019-02-20T06:13:44.563Z,9.37
2019-02-20T06:16:13.724Z,10.27
2019-02-20T06:18:42.585Z,10.37
2019-02-20T06:21:11.795Z,9.57
2019-02-20T06:23:40.696Z,9.73
2019-02-20T06:26:10.014Z,8.67
2019-02-20T06:28:39.241Z,9.07
2019-02-20T06:31:08.616Z,8.37
2019-02-20T06:33:37.642Z,8.60
2019-02-20T06:36:07.012Z,8.87
2019-02-20T06:38:36.128Z,8.47
2019-02-20T06:41:05.026Z,9.20
2019-02-20T06:43:34.064Z,9.03
2019-02-20T06:46:04.040Z,8.37
2019-02-20T06:48:32.884Z,8.30
2019-02-20T06:51:02.055Z,8.03
2019-02-20T06:53:31.299Z,8.90
2019-02-20T06:56:00.486Z,8.63
2019-02-20T06:58:29.961Z,7.80
2019-02-20T07:00:59.116Z,8.20
2019-02-20T07:03:28.101Z,8.33
2019-02-20T07:06:21.328Z,8.17
2019-02-20T07:09:33.725Z,7.97
2019-02-20T07:12:25.898Z,7.37
2019-02-20T07:15:14.542Z,7.77
2019-02-20T07:18:24.510Z,7.97
2019-02-20T07:21:30.668Z,7.30
2019-02-20T07:24:29.608Z,8.53
2019-02-20T07:27:35.363Z,8.20
2019-02-20T07:30:07.922Z,7.57
2019-02-20T07:32:41.167Z,8.30
2019-02-20T07:35:11.014Z,8.30
2019-02-20T07:37:40.220Z,8.67
2019-02-20T07:40:11.264Z,8.40
2019-02-20T07:42:40.458Z,8.27
2019-02-20T07:45:12.399Z,7.57
2019-02-20T07:47:43.196Z,7.40
2019-02-20T07:50:16.575Z,7.63
2019-02-20T07:52:52.839Z,7.50
2019-02-20T07:55:22.707Z,8.00
2019-02-20T07:57:51.891Z,7.70
2019-02-20T08:00:20.887Z,7.47
2019-02-20T08:02:50.089Z,7.80
2019-02-20T08:05:19.061Z,7.50
2019-02-20T08:07:47.972Z,7.63
2019-02-20T08:10:18.162Z,7.67
2019-02-20T08:12:47.725Z,7.17
2019-02-20T08:15:16.689Z,7.43
2019-02-20T08:17:45.613Z,7.17
2019-02-20T08:20:14.641Z,7.80
2019-02-20T08:22:43.741Z,6.93
2019-02-20T08:25:12.645Z,7.03
2019-02-20T08:27:42.343Z,7.80
2019-02-20T08:30:13.933Z,8.13
2019-02-20T08:32:42.916Z,6.90
2019-02-20T08:35:12.689Z,7.23
2019-02-20T08:37:43.098Z,7.20
2019-02-20T08:40:17.533Z,7.13
2019-02-20T08:42:46.403Z,7.50
2019-02-20T08:45:16.020Z,8.43
2019-02-20T08:47:45.031Z,8.00
2019-02-20T08:50:14.127Z,7.83
2019-02-20T08:52:43.048Z,7.87
2019-02-20T08:55:12.768Z,8.33
2019-02-20T08:57:41.621Z,8.63
2019-02-20T09:00:12.876Z,7.43
2019-02-20T09:02:41.792Z,8.97
2019-02-20T09:05:10.755Z,8.97
2019-02-20T09:07:42.387Z,8.87
2019-02-20T09:10:12.539Z,9.30
2019-02-20T09:12:42.848Z,9.13
2019-02-20T09:15:11.901Z,9.60
2019-02-20T09:17:40.865Z,10.40
2019-02-20T09:20:10.169Z,10.13
2019-02-20T09:22:39.681Z,8.73
2019-02-20T09:25:09.554Z,8.67
2019-02-20T09:27:38.886Z,9.53
2019-02-20T09:30:10.059Z,9.40
2019-02-20T09:32:39.108Z,9.03
2019-02-20T09:35:08.630Z,9.43
2019-02-20T09:37:37.765Z,9.40
2019-02-20T09:40:09.199Z,8.93
2019-02-20T09:42:39.627Z,8.67
2019-02-20T09:45:08.952Z,8.93
2019-02-20T09:47:38.218Z,9.00
2019-02-20T09:50:07.370Z,8.17
2019-02-20T09:52:36.342Z,8.70
2019-02-20T09:55:05.365Z,8.70
2019-02-20T09:57:34.338Z,7.87
2019-02-20T10:00:03.367Z,7.53
2019-02-20T10:02:36.269Z,7.00
2019-02-20T10:05:05.367Z,7.87
2019-02-20T10:07:34.669Z,7.60
2019-02-20T10:10:03.661Z,7.93
2019-02-20T10:12:34.038Z,7.97
2019-02-20T10:15:03.262Z,7.90
2019-02-20T10:17:32.095Z,7.73
2019-02-20T10:20:01.025Z,7.07
2019-02-20T10:22:30.262Z,7.97
2019-02-20T10:24:59.312Z,7.47
2019-02-20T10:27:28.516Z,7.73
2019-02-20T10:29:57.676Z,7.80
2019-02-20T10:32:27.056Z,7.53
2019-02-20T10:34:56.325Z,7.67
2019-02-20T10:37:25.756Z,7.57
2019-02-20T10:39:55.856Z,7.23
2019-02-20T10:42:25.055Z,7.60
2019-02-20T10:44:55.362Z,6.90
2019-02-20T10:47:24.995Z,7.63
2019-02-20T10:49:54.001Z,7.20
2019-02-20T10:52:23.697Z,7.20
2019-02-20T10:54:57.849Z,7.33
2019-02-20T10:57:23.627Z,6.90
2019-02-20T10:59:52.728Z,6.43
2019-02-20T11:02:22.202Z,6.33
2019-02-20T11:04:51.428Z,7.80
2019-02-20T11:07:20.396Z,6.37
2019-02-20T11:09:49.742Z,7.13
2019-02-20T11:12:18.654Z,6.87
2019-02-20T11:14:55.287Z,6.00
2019-02-20T11:17:24.167Z,6.90
2019-02-20T11:19:53.339Z,5.53
2019-02-20T11:22:22.262Z,6.70
2019-02-20T11:24:51.178Z,6.60
2019-02-20T11:27:20.077Z,6.80
2019-02-20T11:29:49.188Z,5.40
2019-02-20T11:32:19.367Z,6.17
2019-02-20T11:34:48.642Z,6.10
2019-02-20T11:37:17.854Z,6.37
2019-02-20T11:39:51.832Z,4.93
2019-02-20T11:42:20.728Z,6.20
2019-02-20T11:44:49.924Z,6.83
2019-02-20T11:47:18.819Z,6.77
2019-02-20T11:49:48.193Z,4.70
2019-02-20T11:52:18.494Z,5.67
2019-02-20T11:54:51.203Z,5.63
2019-02-20T11:57:20.494Z,4.53
2019-02-20T11:59:49.424Z,4.77
2019-02-20T12:02:18.316Z,4.40
2019-02-20T12:04:50.406Z,4.70
2019-02-20T12:07:20.344Z,3.87
2019-02-20T12:09:50.248Z,4.10
2019-02-20T12:12:20.663Z,4.12
2019-02-20T12:14:50.761Z,4.10
2019-02-20T12:17:22.880Z,4.00
2019-02-20T12:19:51.922Z,4.53
2019-02-20T12:22:20.936Z,4.20
2019-02-20T12:24:49.865Z,3.97
2019-02-20T12:27:18.930Z,3.43
2019-02-20T12:29:47.897Z,4.43
2019-02-20T12:32:17.613Z,3.47
2019-02-20T12:34:46.901Z,3.70
2019-02-20T12:37:15.835Z,3.60
2019-02-20T12:39:44.859Z,2.90
2019-02-20T12:42:16.294Z,2.30
2019-02-20T12:44:48.578Z,2.87
2019-02-20T12:47:17.673Z,2.77
2019-02-20T12:49:46.971Z,2.90
2019-02-20T12:52:16.372Z,3.47
2019-02-20T12:54:45.530Z,3.30
2019-02-20T12:57:18.089Z,3.23
2019-02-20T12:59:47.283Z,2.67
2019-02-20T13:02:16.741Z,2.87
2019-02-20T13:04:46.451Z,2.80
2019-02-20T13:07:15.363Z,2.67
2019-02-20T13:09:55.130Z,2.53
2019-02-20T13:12:24.053Z,3.20
2019-02-20T13:14:55.048Z,2.40
2019-02-20T13:17:23.958Z,2.98
2019-02-20T13:19:53.683Z,2.20
2019-02-20T13:22:29.985Z,1.83
2019-02-20T13:24:59.433Z,2.27
2019-02-20T13:27:28.422Z,2.00
2019-02-20T13:29:58.068Z,2.50
2019-02-20T13:32:28.959Z,2.37
2019-02-20T13:34:58.025Z,2.53
2019-02-20T13:37:29.584Z,2.30
2019-02-20T13:39:59.289Z,2.05
2019-02-20T13:42:29.286Z,1.93
2019-02-20T13:45:02.423Z,1.80
2019-02-20T13:47:31.406Z,2.22
2019-02-20T13:50:06.044Z,2.33
2019-02-20T13:52:35.723Z,2.25
2019-02-20T13:55:06.265Z,2.27
2019-02-20T13:57:35.895Z,2.20
2019-02-20T14:00:05.625Z,2.00
2019-02-20T14:02:34.785Z,2.30
2019-02-20T14:05:05.797Z,2.40
2019-02-20T14:07:35.251Z,2.00
2019-02-20T14:10:07.995Z,2.30
2019-02-20T14:12:37.564Z,1.62
2019-02-20T14:15:08.325Z,1.80
2019-02-20T14:17:40.719Z,1.37
2019-02-20T14:20:10.559Z,1.75
2019-02-20T14:22:40.070Z,1.77
2019-02-20T14:25:09.167Z,1.63
2019-02-20T14:27:38.213Z,1.27
2019-02-20T14:30:07.731Z,2.00
2019-02-20T14:32:38.022Z,2.23
2019-02-20T14:35:07.636Z,2.02
2019-02-20T14:37:39.330Z,1.80
2019-02-20T14:40:10.322Z,1.90
2019-02-20T14:42:40.314Z,1.75
2019-02-20T14:45:10.709Z,1.30
2019-02-20T14:47:40.371Z,1.30
2019-02-20T14:50:09.656Z,1.60
2019-02-20T14:52:41.863Z,1.72
2019-02-20T14:55:10.933Z,1.50
2019-02-20T14:57:42.057Z,1.70
2019-02-20T15:00:12.954Z,1.60
2019-02-20T15:02:42.465Z,1.45
2019-02-20T15:05:12.615Z,1.60
2019-02-20T15:07:42.189Z,1.32
2019-02-20T15:10:14.494Z,1.57
2019-02-20T15:12:44.119Z,1.82
2019-02-20T15:15:14.137Z,2.10
2019-02-20T15:17:43.468Z,1.40
2019-02-20T15:20:12.413Z,1.50
2019-02-20T15:22:41.717Z,1.83
2019-02-20T15:25:12.194Z,1.87
2019-02-20T15:27:41.812Z,1.67
2019-02-20T15:30:12.708Z,1.90
2019-02-20T15:32:42.556Z,1.27
2019-02-20T15:35:11.628Z,1.70
2019-02-20T15:37:40.650Z,1.63
2019-02-20T15:40:10.874Z,1.60
2019-02-20T15:42:40.464Z,1.90
2019-02-20T15:45:10.165Z,1.77
2019-02-20T15:47:39.325Z,2.33
2019-02-20T15:50:10.255Z,1.57
2019-02-20T15:52:39.871Z,1.52
2019-02-20T15:55:12.971Z,1.60
2019-02-20T15:57:42.217Z,1.93
2019-02-20T16:00:13.713Z,1.57
2019-02-20T16:02:43.390Z,1.87
2019-02-20T16:05:14.411Z,2.20
2019-02-20T16:07:47.087Z,2.65
2019-02-20T16:10:16.957Z,1.80
2019-02-20T16:12:48.340Z,2.23
2019-02-20T16:15:17.993Z,2.23
2019-02-20T16:17:47.279Z,2.00
2019-02-20T16:20:16.887Z,2.40
2019-02-20T16:22:52.510Z,2.35
2019-02-20T16:25:23.761Z,2.37
2019-02-20T16:27:53.736Z,2.60
2019-02-20T16:30:22.823Z,2.03
2019-02-20T16:32:53.819Z,2.47
2019-02-20T16:35:22.805Z,2.37
2019-02-20T16:37:52.553Z,2.43
2019-02-20T16:40:33.588Z,2.23
2019-02-20T16:43:06.334Z,3.70
2019-02-20T16:45:36.370Z,2.37
2019-02-20T16:48:08.728Z,2.40
2019-02-20T16:50:45.251Z,2.50
2019-02-20T16:53:15.577Z,2.40
2019-02-20T16:55:45.636Z,2.70
2019-02-20T16:58:15.123Z,2.33
2019-02-20T17:00:45.031Z,2.37
2019-02-20T17:03:14.040Z,2.40
2019-02-20T17:05:43.037Z,2.13
2019-02-20T17:08:12.106Z,2.20
2019-02-20T17:10:41.199Z,2.10
2019-02-20T17:13:10.260Z,2.57
2019-02-20T17:15:39.659Z,2.57
2019-02-20T17:18:08.635Z,2.87
2019-02-20T17:20:44.010Z,3.00
2019-02-20T17:23:16.377Z,2.70
2019-02-20T17:25:45.623Z,2.97
2019-02-20T17:28:15.406Z,3.40
2019-02-20T17:30:44.304Z,2.87
2019-02-20T17:33:13.704Z,3.00
2019-02-20T17:35:42.752Z,3.50
2019-02-20T17:38:11.938Z,3.30
2019-02-20T17:40:41.209Z,3.73
2019-02-20T17:43:10.254Z,3.57
2019-02-20T17:45:39.656Z,3.87
2019-02-20T17:48:09.704Z,3.20
2019-02-20T17:50:43.483Z,3.93
2019-02-20T17:53:15.989Z,4.10
2019-02-20T17:55:46.461Z,4.23
2019-02-20T17:58:17.885Z,3.97
2019-02-20T18:00:47.697Z,4.30
2019-02-20T18:03:19.929Z,4.40
2019-02-20T18:05:48.896Z,3.97
2019-02-20T18:08:18.192Z,4.03
2019-02-20T18:10:47.397Z,4.27
2019-02-20T18:13:22.568Z,5.07
2019-02-20T18:15:51.824Z,4.87
2019-02-20T18:18:20.863Z,5.00
2019-02-20T18:20:52.997Z,4.93
2019-02-20T18:23:21.904Z,5.17
2019-02-20T18:25:54.081Z,5.57
2019-02-20T18:28:26.243Z,5.63
2019-02-20T18:30:56.131Z,5.87
2019-02-20T18:33:25.145Z,4.80
2019-02-20T18:35:54.231Z,4.90
2019-02-20T18:38:23.322Z,5.13
2019-02-20T18:40:53.384Z,5.30
2019-02-20T18:43:22.453Z,5.07
2019-02-20T18:48:29.790Z,6.03
2019-02-20T18:51:28.833Z,5.80
2019-02-20T18:53:57.769Z,6.87
2019-02-20T18:56:26.842Z,5.63
2019-02-20T18:58:55.783Z,7.37
2019-02-20T19:01:25.047Z,5.67
2019-02-20T19:04:00.224Z,5.83
2019-02-20T19:06:35.433Z,6.13
2019-02-20T19:09:10.288Z,6.17
2019-02-20T19:12:26.343Z,6.03
2019-02-20T19:15:17.445Z,6.37
2019-02-20T19:18:17.057Z,6.27
2019-02-20T19:21:10.391Z,6.90
2019-02-20T19:24:21.790Z,6.77
2019-02-20T19:27:19.583Z,7.23
2019-02-20T19:30:39.934Z,7.20
2019-02-20T19:33:56.227Z,7.60
2019-02-20T19:36:57.130Z,7.47
2019-02-20T19:40:16.913Z,7.13
2019-02-20T19:43:31.609Z,7.30
2019-02-20T19:46:46.810Z,6.90
2019-02-20T19:50:09.149Z,7.20
2019-02-20T19:56:52.119Z,8.23
2019-02-20T20:00:13.159Z,8.13
2019-02-20T20:03:09.068Z,8.13
2019-02-20T20:06:25.566Z,8.37
2019-02-20T20:09:44.597Z,8.80
2019-02-20T20:12:59.516Z,8.80
2019-02-20T20:15:56.982Z,9.07
2019-02-20T20:19:03.787Z,9.43
2019-02-20T20:25:57.155Z,10.27
2019-02-20T20:29:15.832Z,10.67
2019-02-20T20:31:58.080Z,10.40
2019-02-20T20:35:06.110Z,10.00
2019-02-20T20:37:58.656Z,11.47
2019-02-20T20:41:09.057Z,11.50
2019-02-20T20:44:28.334Z,11.63
2019-02-20T20:47:45.187Z,12.00
2019-02-20T20:50:47.197Z,11.57
2019-02-20T20:53:46.901Z,12.37
2019-02-20T20:56:57.861Z,11.93
2019-02-20T20:59:40.657Z,12.60
2019-02-20T21:02:23.018Z,12.47
2019-02-20T21:05:12.765Z,12.80
2019-02-20T21:07:53.333Z,12.47
2019-02-20T21:11:02.387Z,12.57
2019-02-20T21:14:08.757Z,12.73
2019-02-20T21:17:07.594Z,11.53
2019-02-20T21:20:27.075Z,12.80
2019-02-20T21:23:21.374Z,12.63
2019-02-20T21:26:14.840Z,12.73
2019-02-20T21:29:13.656Z,13.00
2019-02-20T21:32:24.069Z,11.47
2019-02-20T21:35:20.612Z,12.47
2019-02-20T21:38:30.227Z,14.63
2019-02-20T21:41:20.825Z,12.67
2019-02-20T21:44:11.360Z,12.33
2019-02-20T21:47:05.887Z,12.60
2019-02-20T21:50:19.139Z,12.17
2019-02-20T21:53:20.919Z,12.33
2019-02-20T21:56:26.870Z,11.43
2019-02-20T21:59:23.474Z,11.90
2019-02-20T22:02:36.660Z,11.50
2019-02-20T22:05:24.811Z,12.70
2019-02-20T22:08:44.313Z,12.80
2019-02-20T22:11:59.426Z,12.27
2019-02-20T22:15:07.439Z,12.40
2019-02-20T22:18:32.733Z,11.93
2019-02-20T22:21:58.155Z,11.87
2019-02-20T22:25:10.245Z,11.60
2019-02-20T22:28:11.008Z,12.20
2019-02-20T22:31:12.639Z,12.17
2019-02-20T22:34:07.357Z,12.10
2019-02-20T22:37:32.593Z,11.80
2019-02-20T22:40:50.992Z,11.10
2019-02-20T22:43:48.000Z,12.27
2019-02-20T22:47:04.374Z,11.47
2019-02-20T22:49:49.769Z,11.90
2019-02-20T22:52:23.957Z,11.30
2019-02-20T22:55:36.113Z,12.40
2019-02-20T23:01:37.008Z,12.03
2019-02-20T23:04:28.185Z,12.50
2019-02-20T23:07:13.158Z,12.23
2019-02-20T23:10:18.348Z,13.10
2019-02-20T23:13:30.860Z,12.87
2019-02-20T23:16:00.097Z,12.67
2019-02-20T23:18:30.217Z,13.43
2019-02-20T23:20:59.720Z,13.03
2019-02-20T23:23:28.587Z,13.07
2019-02-20T23:25:57.486Z,14.20
2019-02-20T23:28:27.526Z,12.40
2019-02-20T23:30:56.432Z,13.47
2019-02-20T23:33:25.754Z,13.10
2019-02-20T23:35:54.661Z,13.87
2019-02-20T23:38:23.651Z,12.67
2019-02-20T23:40:52.693Z,14.00
2019-02-20T23:43:21.669Z,13.90
2019-02-20T23:45:50.593Z,13.87
2019-02-20T23:48:19.670Z,13.40
2019-02-20T23:50:48.589Z,13.83
2019-02-20T23:53:18.787Z,13.30
2019-02-20T23:55:48.378Z,13.77
2019-02-20T23:58:17.567Z,13.27
